KMHK

Manhattan Regional Airport

Manhattan, Kansas, USA
METAR KMHK 150300Z AUTO 28003KT 7SM -RA SCT043 BKN080 OVC100 23/22 A2986 RMK AO2 P0000 T02280222
Observed Flight Rules
Aug-15 @ 03:00 UTC (35 minutes ago) Visual Flight Rules
Wind Visibility Clouds Conditions
280° at 3 knots 7 miles
  • Scattered at 4,300' AGL
  • Broken at 8,000' AGL
  • Overcast at 10,000' AGL
  • Light Rain
Temperatures Readings Precipitation
Current 23°C / 73°F
Dewpoint 22°C / 72°F
Humidity 94%
Altimeter 29.86" Hg
Pressure 1011 hPa
Elevation 317
Current Rain 0.005
METAR KMHK 150300Z AUTO 28003KT 7SM -RA SCT043 BKN080 OVC100 23/22 A2986 RMK AO2 P0000 T02280222
Observed Flight Rules
Aug-15 @ 03:00 UTC
(35 minutes ago)
VFR
Wind Visibility
280° at 3 knots 7 miles
Clouds
  • Scattered at 4,300' AGL
  • Broken at 8,000' AGL
  • Overcast at 10,000' AGL
Conditions
  • Light Rain
Temperature Dewpoint
23°C / 73°F 22°C / 72°F
Humidity Altimeter Pressure
94% 29.86" Hg 1011 hPa
Current Rain
0.005